Aviation Digital Data Service (ADDS)

Output produced by METARs form (1900 UTC 17 September 2021)
found at http://www.aviationweather.gov/metar/data/
 
METAR text: CYYF 171800Z 19024G31KT 15SM BKN092 OVC140 17/M02 A2972 RMK AC6AC2 SLP069 DENSITY ALT 1900FT
Conditions at: CYYF (PENTICTON AIRPOR, BC, CA) observed 1800 UTC 17 September 2021
Temperature: 17.0°C (63°F)
Dewpoint: -2.0°C (28°F) [RH = 27%]
Pressure (altimeter): 29.72 inches Hg (1006.5 mb)
[Sea-level pressure: 1006.9 mb]
Winds: from the S (190 degrees) at 28 MPH (24 knots; 12.3 m/s)
gusting to 36 MPH (31 knots; 15.9 m/s)
Visibility: 15 miles (24 km)
Ceiling: 9200 feet AGL
Clouds: broken clouds at 9200 feet AGL
overcast cloud deck at 14000 feet AGL
Weather: no significant weather observed at this time

METAR text: CYYF 171700Z 19022G35KT 15SM BKN093 BKN140 OVC180 17/M01 A2973 RMK AC5AC2AC1 SLP070 DENSITY ALT 1900FT
Conditions at: CYYF (PENTICTON AIRPOR, BC, CA) observed 1700 UTC 17 September 2021
Temperature: 17.0°C (63°F)
Dewpoint: -1.0°C (30°F) [RH = 29%]
Pressure (altimeter): 29.73 inches Hg (1006.9 mb)
[Sea-level pressure: 1007.0 mb]
Winds: from the S (190 degrees) at 25 MPH (22 knots; 11.3 m/s)
gusting to 40 MPH (35 knots; 18.0 m/s)
Visibility: 15 miles (24 km)
Ceiling: 9300 feet AGL
Clouds: broken clouds at 9300 feet AGL
broken clouds at 14000 feet AGL
overcast cloud deck at 18000 feet AGL
Weather: no significant weather observed at this time

Forecast for: CYYF (PENTICTON AIRPOR, BC, CA)
Text: TAF CYYF 171838Z 1719/1807 18020G30KT P6SM OVC090 RMK NXT FCST BY 180100Z
Forecast period: 1900 UTC 17 September 2021 to 0700 UTC 18 September 2021
Forecast type: FROM: standard forecast or significant change
Winds: from the S (180 degrees) at 23 MPH (20 knots; 10.3 m/s)
gusting to 34 MPH (30 knots; 15.4 m/s)
Visibility: 6 or more miles (10+ km)
Ceiling: 9000 feet AGL
Clouds: overcast cloud deck at 9000 feet AGL
Weather: no significant weather forecast for this period